Terminal Aerodrome Forecast
Issued by NWS Knoxville/Tri Cities, TN

Home | Current Version | Previous Version | Text Only | Print | Product List | Glossary On
Versions: 1 2 3 4 5 6 7 8 9 10 11 12 13 14 15 16 17 18 19 20 21 22 23
000
FTUS44 KMRX 231125
TAFTRI
TAF
KTRI 231125Z 2312/2412 08003KT P6SM BKN150
     FM231600 10006KT P6SM SCT050 BKN100
     FM232100 13009KT P6SM -RA SCT035 OVC070
     FM240300 21009KT 6SM -RA SCT025 BKN050
     FM240800 20007KT 5SM -RA BR OVC025=

USA.gov is the U.S. government's official web portal to all federal, state and local government web resources and services.